sensor_id;sensor_type;location;lat;lon;timestamp;pressure;altitude;pressure_sealevel;temperature;humidity
34103;BME280;20381;54.498;18.206;2022-12-07T00:01:23;98778.37;;;2.56;97.37
34103;BME280;20381;54.498;18.206;2022-12-07T00:03:53;98774.98;;;2.54;97.35
34103;BME280;20381;54.498;18.206;2022-12-07T00:06:26;98777.56;;;2.54;97.30
34103;BME280;20381;54.498;18.206;2022-12-07T00:08:53;98774.53;;;2.54;97.33
34103;BME280;20381;54.498;18.206;2022-12-07T00:11:21;98778.37;;;2.56;97.33
34103;BME280;20381;54.498;18.206;2022-12-07T00:13:56;98771.92;;;2.56;97.34
34103;BME280;20381;54.498;18.206;2022-12-07T00:16:27;98775.79;;;2.56;97.36
34103;BME280;20381;54.498;18.206;2022-12-07T00:18:55;98770.67;;;2.54;97.21
34103;BME280;20381;54.498;18.206;2022-12-07T00:21:24;98777.56;;;2.54;97.20
34103;BME280;20381;54.498;18.206;2022-12-07T00:23:54;98769.47;;;2.51;97.30
34103;BME280;20381;54.498;18.206;2022-12-07T00:26:26;98764.77;;;2.51;97.24
34103;BME280;20381;54.498;18.206;2022-12-07T00:28:57;98760.91;;;2.51;97.27
34103;BME280;20381;54.498;18.206;2022-12-07T00:31:27;98765.67;;;2.50;97.24
34103;BME280;20381;54.498;18.206;2022-12-07T00:33:57;98760.52;;;2.50;97.35
34103;BME280;20381;54.498;18.206;2022-12-07T00:36:25;98756.66;;;2.50;97.37
34103;BME280;20381;54.498;18.206;2022-12-07T00:38:53;98761.90;;;2.46;97.19
34103;BME280;20381;54.498;18.206;2022-12-07T00:41:22;98764.05;;;2.45;97.26
34103;BME280;20381;54.498;18.206;2022-12-07T00:43:51;98751.98;;;2.48;97.36
34103;BME280;20381;54.498;18.206;2022-12-07T00:46:19;98754.95;;;2.49;97.39
34103;BME280;20381;54.498;18.206;2022-12-07T00:48:48;98757.13;;;2.48;97.24
34103;BME280;20381;54.498;18.206;2022-12-07T00:51:18;98756.75;;;2.46;97.23
34103;BME280;20381;54.498;18.206;2022-12-07T00:53:46;98752.37;;;2.49;97.45
34103;BME280;20381;54.498;18.206;2022-12-07T00:56:19;98745.89;;;2.50;97.46
34103;BME280;20381;54.498;18.206;2022-12-07T00:58:52;98744.90;;;2.54;97.47
34103;BME280;20381;54.498;18.206;2022-12-07T01:01:20;98738.67;;;2.33;97.92
34103;BME280;20381;54.498;18.206;2022-12-07T01:03:46;98730.23;;;2.28;98.19
34103;BME280;20381;54.498;18.206;2022-12-07T01:06:16;98731.03;;;2.30;98.42
34103;BME280;20381;54.498;18.206;2022-12-07T01:08:44;98728.46;;;2.30;98.50
34103;BME280;20381;54.498;18.206;2022-12-07T01:11:17;98722.45;;;2.44;98.08
34103;BME280;20381;54.498;18.206;2022-12-07T01:13:45;98724.83;;;2.51;97.63
34103;BME280;20381;54.498;18.206;2022-12-07T01:16:13;98721.77;;;2.53;97.56
34103;BME280;20381;54.498;18.206;2022-12-07T01:18:42;98721.77;;;2.53;97.43
34103;BME280;20381;54.498;18.206;2022-12-07T01:21:13;98725.12;;;2.55;97.45
34103;BME280;20381;54.498;18.206;2022-12-07T01:23:44;98718.36;;;2.52;97.37
34103;BME280;20381;54.498;18.206;2022-12-07T01:26:13;98720.48;;;2.53;97.44
34103;BME280;20381;54.498;18.206;2022-12-07T01:28:42;98716.10;;;2.55;97.48
34103;BME280;20381;54.498;18.206;2022-12-07T01:31:14;98722.06;;;2.57;97.55
34103;BME280;20381;54.498;18.206;2022-12-07T01:33:45;98717.33;;;2.58;97.50
34103;BME280;20381;54.498;18.206;2022-12-07T01:36:31;98717.33;;;2.58;97.49
34103;BME280;20381;54.498;18.206;2022-12-07T01:39:01;98719.91;;;2.58;97.55
34103;BME280;20381;54.498;18.206;2022-12-07T01:41:32;98715.52;;;2.60;97.56
34103;BME280;20381;54.498;18.206;2022-12-07T01:44:13;98709.66;;;2.55;97.43
34103;BME280;20381;54.498;18.206;2022-12-07T01:46:58;98710.95;;;2.55;97.68
34103;BME280;20381;54.498;18.206;2022-12-07T01:49:33;98705.80;;;2.41;98.36
34103;BME280;20381;54.498;18.206;2022-12-07T01:54:55;98707.28;;;2.49;98.17
34103;BME280;20381;54.498;18.206;2022-12-07T01:57:25;98703.93;;;2.46;98.17
34103;BME280;20381;54.498;18.206;2022-12-07T01:59:53;98706.28;;;2.39;98.33
34103;BME280;20381;54.498;18.206;2022-12-07T02:02:28;98707.56;;;2.39;98.51
34103;BME280;20381;54.498;18.206;2022-12-07T02:05:04;98695.59;;;2.38;98.45
34103;BME280;20381;54.498;18.206;2022-12-07T02:07:34;98697.75;;;2.37;98.52
34103;BME280;20381;54.498;18.206;2022-12-07T02:10:21;98699.45;;;2.38;98.58
34103;BME280;20381;54.498;18.206;2022-12-07T02:12:56;98691.63;;;2.55;98.17
34103;BME280;20381;54.498;18.206;2022-12-07T02:15:21;98691.55;;;2.58;97.87
34103;BME280;20381;54.498;18.206;2022-12-07T02:18:05;98694.91;;;2.60;97.80
34103;BME280;20381;54.498;18.206;2022-12-07T02:26:23;98685.50;;;2.59;97.79
34103;BME280;20381;54.498;18.206;2022-12-07T02:31:43;98676.77;;;2.63;97.71
34103;BME280;20381;54.498;18.206;2022-12-07T02:34:52;98671.51;;;2.66;97.80
34103;BME280;20381;54.498;18.206;2022-12-07T02:37:19;98671.47;;;2.67;97.82
34103;BME280;20381;54.498;18.206;2022-12-07T02:39:50;98671.81;;;2.57;98.35
34103;BME280;20381;54.498;18.206;2022-12-07T02:42:17;98669.23;;;2.57;98.57
34103;BME280;20381;54.498;18.206;2022-12-07T02:44:47;98661.98;;;2.55;98.58
34103;BME280;20381;54.498;18.206;2022-12-07T02:47:16;98658.13;;;2.55;98.76
34103;BME280;20381;54.498;18.206;2022-12-07T02:49:45;98658.54;;;2.56;98.74
34103;BME280;20381;54.498;18.206;2022-12-07T02:52:12;98658.34;;;2.75;98.13
34103;BME280;20381;54.498;18.206;2022-12-07T02:54:38;98643.36;;;2.60;98.82
34103;BME280;20381;54.498;18.206;2022-12-07T03:16:45;98631.17;;;2.91;98.00
34103;BME280;20381;54.498;18.206;2022-12-07T03:19:15;98633.23;;;2.94;98.06
34103;BME280;20381;54.498;18.206;2022-12-07T03:21:59;98630.13;;;2.97;98.04
34103;BME280;20381;54.498;18.206;2022-12-07T03:24:31;98629.67;;;2.98;97.91
34103;BME280;20381;54.498;18.206;2022-12-07T03:27:18;98631.06;;;2.95;97.93
34103;BME280;20381;54.498;18.206;2022-12-07T03:29:52;98631.45;;;2.96;97.95
34103;BME280;20381;54.498;18.206;2022-12-07T03:32:48;98636.12;;;2.98;97.90
34103;BME280;20381;54.498;18.206;2022-12-07T03:41:00;98617.72;;;2.95;97.89
34103;BME280;20381;54.498;18.206;2022-12-07T03:43:30;98613.75;;;2.98;97.96
34103;BME280;20381;54.498;18.206;2022-12-07T03:48:50;98605.81;;;2.91;97.83
34103;BME280;20381;54.498;18.206;2022-12-07T03:51:46;98597.73;;;2.88;97.84
34103;BME280;20381;54.498;18.206;2022-12-07T03:54:34;98602.83;;;2.65;98.79
34103;BME280;20381;54.498;18.206;2022-12-07T03:57:04;98593.91;;;2.75;98.83
34103;BME280;20381;54.498;18.206;2022-12-07T03:59:32;98594.78;;;2.74;98.63
34103;BME280;20381;54.498;18.206;2022-12-07T04:02:05;98599.55;;;2.73;98.60
34103;BME280;20381;54.498;18.206;2022-12-07T04:04:33;98586.98;;;2.64;98.72
34103;BME280;20381;54.498;18.206;2022-12-07T04:07:00;98580.12;;;2.63;98.94
34103;BME280;20381;54.498;18.206;2022-12-07T04:09:27;98578.45;;;2.62;98.96
34103;BME280;20381;54.498;18.206;2022-12-07T04:11:54;98583.22;;;2.61;99.06
34103;BME280;20381;54.498;18.206;2022-12-07T04:14:21;98582.58;;;2.79;98.44
34103;BME280;20381;54.498;18.206;2022-12-07T04:16:53;98576.72;;;2.87;98.06
34103;BME280;20381;54.498;18.206;2022-12-07T04:19:27;98577.91;;;2.90;97.99
34103;BME280;20381;54.498;18.206;2022-12-07T04:21:56;98576.50;;;2.94;97.88
34103;BME280;20381;54.498;18.206;2022-12-07T04:24:23;98570.47;;;2.95;97.92
34103;BME280;20381;54.498;18.206;2022-12-07T04:26:51;98567.37;;;2.97;97.87
34103;BME280;20381;54.498;18.206;2022-12-07T04:29:18;98563.91;;;2.98;97.83
34103;BME280;20381;54.498;18.206;2022-12-07T04:31:45;98558.98;;;2.91;97.72
34103;BME280;20381;54.498;18.206;2022-12-07T04:34:12;98562.44;;;2.90;97.70
34103;BME280;20381;54.498;18.206;2022-12-07T04:36:40;98569.38;;;2.88;97.80
34103;BME280;20381;54.498;18.206;2022-12-07T04:39:09;98567.59;;;2.90;97.95
34103;BME280;20381;54.498;18.206;2022-12-07T04:41:38;98565.42;;;2.91;97.99
34103;BME280;20381;54.498;18.206;2022-12-07T04:44:04;98565.80;;;2.93;98.03
34103;BME280;20381;54.498;18.206;2022-12-07T04:46:33;98566.08;;;2.97;98.01
34103;BME280;20381;54.498;18.206;2022-12-07T04:49:00;98564.41;;;2.96;97.93
34103;BME280;20381;54.498;18.206;2022-12-07T04:51:28;98557.96;;;2.96;97.83
34103;BME280;20381;54.498;18.206;2022-12-07T04:53:56;98553.71;;;2.95;97.84
34103;BME280;20381;54.498;18.206;2022-12-07T04:56:23;98554.53;;;2.83;98.01
34103;BME280;20381;54.498;18.206;2022-12-07T04:58:52;98557.86;;;2.74;98.47
34103;BME280;20381;54.498;18.206;2022-12-07T05:01:21;98552.78;;;2.45;98.45
34103;BME280;20381;54.498;18.206;2022-12-07T05:03:48;98550.59;;;2.60;98.25
34103;BME280;20381;54.498;18.206;2022-12-07T05:06:16;98545.33;;;2.63;97.95
34103;BME280;20381;54.498;18.206;2022-12-07T05:08:42;98547.80;;;2.66;97.91
34103;BME280;20381;54.498;18.206;2022-12-07T05:11:10;98541.47;;;2.63;97.76
34103;BME280;20381;54.498;18.206;2022-12-07T05:13:42;98538.61;;;2.59;97.71
34103;BME280;20381;54.498;18.206;2022-12-07T05:16:08;98543.21;;;2.49;97.61
34103;BME280;20381;54.498;18.206;2022-12-07T05:18:35;98539.17;;;2.42;97.64
34103;BME280;20381;54.498;18.206;2022-12-07T05:21:01;98542.61;;;2.16;98.40
34103;BME280;20381;54.498;18.206;2022-12-07T05:23:28;98539.48;;;2.19;98.68
34103;BME280;20381;54.498;18.206;2022-12-07T05:25:54;98534.58;;;2.25;98.05
34103;BME280;20381;54.498;18.206;2022-12-07T05:28:21;98530.61;;;2.28;97.94
34103;BME280;20381;54.498;18.206;2022-12-07T05:30:47;98525.35;;;2.31;97.92
34103;BME280;20381;54.498;18.206;2022-12-07T05:33:14;98526.05;;;2.36;97.86
34103;BME280;20381;54.498;18.206;2022-12-07T05:35:41;98525.34;;;2.44;98.04
34103;BME280;20381;54.498;18.206;2022-12-07T05:38:08;98519.19;;;2.49;98.04
34103;BME280;20381;54.498;18.206;2022-12-07T05:40:35;98527.72;;;2.51;97.82
34103;BME280;20381;54.498;18.206;2022-12-07T05:43:02;98525.59;;;2.50;97.78
34103;BME280;20381;54.498;18.206;2022-12-07T05:45:29;98529.11;;;2.48;97.68
34103;BME280;20381;54.498;18.206;2022-12-07T05:47:56;98529.49;;;2.49;97.72
34103;BME280;20381;54.498;18.206;2022-12-07T05:50:22;98527.02;;;2.45;97.62
34103;BME280;20381;54.498;18.206;2022-12-07T05:52:49;98525.39;;;2.43;97.70
34103;BME280;20381;54.498;18.206;2022-12-07T05:55:15;98531.48;;;2.40;97.66
34103;BME280;20381;54.498;18.206;2022-12-07T05:57:42;98522.53;;;2.39;97.65
34103;BME280;20381;54.498;18.206;2022-12-07T06:00:12;98518.81;;;2.34;97.54
34103;BME280;20381;54.498;18.206;2022-12-07T06:02:39;98520.59;;;2.32;97.66
34103;BME280;20381;54.498;18.206;2022-12-07T06:05:07;98516.93;;;2.26;97.53
34103;BME280;20381;54.498;18.206;2022-12-07T06:07:33;98516.75;;;2.19;97.53
34103;BME280;20381;54.498;18.206;2022-12-07T06:10:00;98515.25;;;2.12;97.37
34103;BME280;20381;54.498;18.206;2022-12-07T06:12:26;98512.98;;;2.03;97.29
34103;BME280;20381;54.498;18.206;2022-12-07T06:15:04;98518.43;;;1.93;97.57
34103;BME280;20381;54.498;18.206;2022-12-07T06:17:31;98518.34;;;1.96;97.50
34103;BME280;20381;54.498;18.206;2022-12-07T06:19:58;98508.80;;;1.98;97.56
34103;BME280;20381;54.498;18.206;2022-12-07T06:22:25;98510.51;;;1.99;97.56
34103;BME280;20381;54.498;18.206;2022-12-07T06:24:51;98508.28;;;2.02;97.58
34103;BME280;20381;54.498;18.206;2022-12-07T06:27:18;98511.98;;;2.07;97.64
34103;BME280;20381;54.498;18.206;2022-12-07T06:29:44;98511.49;;;2.09;97.64
34103;BME280;20381;54.498;18.206;2022-12-07T06:32:11;98508.47;;;2.09;97.68
34103;BME280;20381;54.498;18.206;2022-12-07T06:34:37;98505.66;;;2.17;97.88
34103;BME280;20381;54.498;18.206;2022-12-07T06:37:04;98498.20;;;2.21;97.86
34103;BME280;20381;54.498;18.206;2022-12-07T06:39:31;98500.98;;;2.01;98.67
34103;BME280;20381;54.498;18.206;2022-12-07T06:41:58;98502.27;;;2.01;98.84
34103;BME280;20381;54.498;18.206;2022-12-07T06:44:25;98497.53;;;2.03;98.93
34103;BME280;20381;54.498;18.206;2022-12-07T06:46:52;98480.31;;;2.05;98.83
34103;BME280;20381;54.498;18.206;2022-12-07T06:49:18;98496.43;;;2.23;98.41
34103;BME280;20381;54.498;18.206;2022-12-07T06:51:45;98500.50;;;2.30;98.07
34103;BME280;20381;54.498;18.206;2022-12-07T06:54:13;98497.41;;;2.32;97.94
34103;BME280;20381;54.498;18.206;2022-12-07T06:56:41;98493.05;;;2.34;97.99
34103;BME280;20381;54.498;18.206;2022-12-07T06:59:08;98496.25;;;2.16;98.72
34103;BME280;20381;54.498;18.206;2022-12-07T07:01:35;98497.33;;;2.35;98.35
34103;BME280;20381;54.498;18.206;2022-12-07T07:04:03;98495.38;;;2.42;98.08
34103;BME280;20381;54.498;18.206;2022-12-07T07:06:30;98495.41;;;2.40;97.80
34103;BME280;20381;54.498;18.206;2022-12-07T07:08:57;98492.17;;;2.35;97.62
34103;BME280;20381;54.498;18.206;2022-12-07T07:11:23;98494.83;;;2.32;97.57
34103;BME280;20381;54.498;18.206;2022-12-07T07:13:50;98497.51;;;2.29;97.54
34103;BME280;20381;54.498;18.206;2022-12-07T07:16:16;98489.02;;;2.27;97.54
34103;BME280;20381;54.498;18.206;2022-12-07T07:18:43;98496.33;;;2.26;97.63
34103;BME280;20381;54.498;18.206;2022-12-07T07:21:10;98490.69;;;2.28;97.64
34103;BME280;20381;54.498;18.206;2022-12-07T07:23:36;98494.79;;;2.34;97.76
34103;BME280;20381;54.498;18.206;2022-12-07T07:26:03;98489.08;;;2.37;97.72
34103;BME280;20381;54.498;18.206;2022-12-07T07:28:30;98486.81;;;2.41;97.70
34103;BME280;20381;54.498;18.206;2022-12-07T07:30:56;98490.95;;;2.45;97.68
34103;BME280;20381;54.498;18.206;2022-12-07T07:33:23;98490.84;;;2.49;97.69
34103;BME280;20381;54.498;18.206;2022-12-07T07:35:49;98492.02;;;2.52;97.73
34103;BME280;20381;54.498;18.206;2022-12-07T07:38:16;98494.11;;;2.54;97.70
34103;BME280;20381;54.498;18.206;2022-12-07T07:40:42;98490.55;;;2.58;97.72
34103;BME280;20381;54.498;18.206;2022-12-07T07:43:09;98483.89;;;2.64;97.71
34103;BME280;20381;54.498;18.206;2022-12-07T07:45:36;98486.63;;;2.71;97.54
34103;BME280;20381;54.498;18.206;2022-12-07T07:48:02;98481.25;;;2.77;97.49
34103;BME280;20381;54.498;18.206;2022-12-07T07:50:29;98482.95;;;2.78;97.39
34103;BME280;20381;54.498;18.206;2022-12-07T07:52:57;98481.67;;;2.78;97.21
34103;BME280;20381;54.498;18.206;2022-12-07T07:55:24;98486.52;;;2.74;97.32
34103;BME280;20381;54.498;18.206;2022-12-07T07:57:50;98486.63;;;2.71;97.50
34103;BME280;20381;54.498;18.206;2022-12-07T08:00:17;98483.94;;;2.74;97.60
34103;BME280;20381;54.498;18.206;2022-12-07T08:02:44;98480.42;;;2.77;97.72
34103;BME280;20381;54.498;18.206;2022-12-07T08:05:11;98484.73;;;2.76;97.62
34103;BME280;20381;54.498;18.206;2022-12-07T08:07:39;98485.53;;;2.78;97.67
34103;BME280;20381;54.498;18.206;2022-12-07T08:10:06;98479.58;;;2.76;97.69
34103;BME280;20381;54.498;18.206;2022-12-07T08:12:38;98481.36;;;2.74;97.50
34103;BME280;20381;54.498;18.206;2022-12-07T08:15:09;98483.18;;;2.72;97.65
34103;BME280;20381;54.498;18.206;2022-12-07T08:17:36;98479.31;;;2.72;97.71
34103;BME280;20381;54.498;18.206;2022-12-07T08:20:03;98480.60;;;2.72;97.68
34103;BME280;20381;54.498;18.206;2022-12-07T08:22:31;98480.71;;;2.69;97.65
34103;BME280;20381;54.498;18.206;2022-12-07T08:24:58;98478.17;;;2.67;97.68
34103;BME280;20381;54.498;18.206;2022-12-07T08:27:25;98472.98;;;2.69;97.63
34103;BME280;20381;54.498;18.206;2022-12-07T08:29:52;98475.75;;;2.63;97.43
34103;BME280;20381;54.498;18.206;2022-12-07T08:32:19;98465.44;;;2.63;97.46
34103;BME280;20381;54.498;18.206;2022-12-07T08:34:46;98467.63;;;2.62;97.44
34103;BME280;20381;54.498;18.206;2022-12-07T08:37:12;98467.36;;;2.58;97.33
34103;BME280;20381;54.498;18.206;2022-12-07T08:39:39;98470.81;;;2.57;97.34
34103;BME280;20381;54.498;18.206;2022-12-07T08:42:06;98471.72;;;2.56;97.33
34103;BME280;20381;54.498;18.206;2022-12-07T08:44:32;98464.55;;;2.52;97.42
34103;BME280;20381;54.498;18.206;2022-12-07T08:47:02;98473.39;;;2.57;97.57
34103;BME280;20381;54.498;18.206;2022-12-07T08:49:39;98466.84;;;2.60;97.51
34103;BME280;20381;54.498;18.206;2022-12-07T08:52:07;98473.52;;;2.65;97.59
34103;BME280;20381;54.498;18.206;2022-12-07T08:54:35;98457.70;;;2.63;97.70
34103;BME280;20381;54.498;18.206;2022-12-07T08:57:05;98464.12;;;2.76;97.65
34103;BME280;20381;54.498;18.206;2022-12-07T08:59:33;98457.86;;;2.83;97.54
34103;BME280;20381;54.498;18.206;2022-12-07T09:02:01;98457.75;;;2.86;97.55
34103;BME280;20381;54.498;18.206;2022-12-07T09:04:27;98453.27;;;2.91;97.75
34103;BME280;20381;54.498;18.206;2022-12-07T09:06:54;98457.24;;;3.00;97.78
34103;BME280;20381;54.498;18.206;2022-12-07T09:09:21;98451.02;;;3.06;97.75
34103;BME280;20381;54.498;18.206;2022-12-07T09:11:48;98453.53;;;3.07;97.50
34103;BME280;20381;54.498;18.206;2022-12-07T09:14:15;98450.00;;;3.10;97.54
34103;BME280;20381;54.498;18.206;2022-12-07T09:16:44;98443.88;;;3.12;97.46
34103;BME280;20381;54.498;18.206;2022-12-07T09:19:11;98443.31;;;3.16;97.48
34103;BME280;20381;54.498;18.206;2022-12-07T09:21:37;98441.14;;;3.17;97.45
34103;BME280;20381;54.498;18.206;2022-12-07T09:24:04;98440.35;;;3.15;97.27
34103;BME280;20381;54.498;18.206;2022-12-07T09:26:31;98437.59;;;3.08;97.00
34103;BME280;20381;54.498;18.206;2022-12-07T09:28:58;98429.48;;;3.07;97.17
34103;BME280;20381;54.498;18.206;2022-12-07T09:31:25;98424.20;;;3.10;97.18
34103;BME280;20381;54.498;18.206;2022-12-07T09:33:57;98433.69;;;3.09;97.25
34103;BME280;20381;54.498;18.206;2022-12-07T09:36:26;98419.84;;;3.12;97.28
34103;BME280;20381;54.498;18.206;2022-12-07T09:38:53;98425.99;;;3.08;97.08
34103;BME280;20381;54.498;18.206;2022-12-07T09:41:21;98424.32;;;3.07;97.11
34103;BME280;20381;54.498;18.206;2022-12-07T09:43:48;98419.16;;;3.07;97.14
34103;BME280;20381;54.498;18.206;2022-12-07T09:46:17;98426.11;;;3.05;96.88
34103;BME280;20381;54.498;18.206;2022-12-07T09:48:46;98423.16;;;3.04;96.98
34103;BME280;20381;54.498;18.206;2022-12-07T09:51:20;98423.16;;;3.04;96.92
34103;BME280;20381;54.498;18.206;2022-12-07T09:53:49;98420.19;;;3.03;96.95
34103;BME280;20381;54.498;18.206;2022-12-07T09:56:18;98409.76;;;3.06;97.03
34103;BME280;20381;54.498;18.206;2022-12-07T09:58:46;98408.63;;;3.01;96.87
34103;BME280;20381;54.498;18.206;2022-12-07T10:01:19;98406.63;;;2.98;96.67
34103;BME280;20381;54.498;18.206;2022-12-07T10:03:54;98413.19;;;2.95;96.79
34103;BME280;20381;54.498;18.206;2022-12-07T10:06:23;98411.90;;;2.95;96.82
34103;BME280;20381;54.498;18.206;2022-12-07T10:08:50;98413.57;;;2.96;96.78
34103;BME280;20381;54.498;18.206;2022-12-07T10:11:17;98411.90;;;2.95;96.77
34103;BME280;20381;54.498;18.206;2022-12-07T10:13:45;98411.90;;;2.95;96.67
34103;BME280;20381;54.498;18.206;2022-12-07T10:18:55;98403.98;;;2.87;96.63
34103;BME280;20381;54.498;18.206;2022-12-07T10:21:24;98401.70;;;2.91;96.68
34103;BME280;20381;54.498;18.206;2022-12-07T10:24:01;98399.27;;;2.99;96.76
34103;BME280;20381;54.498;18.206;2022-12-07T10:26:36;98392.70;;;3.02;96.55
34103;BME280;20381;54.498;18.206;2022-12-07T10:32:04;98386.88;;;2.97;96.22
34103;BME280;20381;54.498;18.206;2022-12-07T10:34:43;98386.88;;;2.97;96.35
34103;BME280;20381;54.498;18.206;2022-12-07T10:39:58;98376.80;;;2.90;96.10
34103;BME280;20381;54.498;18.206;2022-12-07T10:42:29;98377.59;;;2.93;96.34
34103;BME280;20381;54.498;18.206;2022-12-07T10:47:54;98371.88;;;2.84;95.94
34103;BME280;20381;54.498;18.206;2022-12-07T11:02:23;98358.88;;;2.87;96.11
34103;BME280;20381;54.498;18.206;2022-12-07T11:05:29;98354.44;;;3.03;96.12
34103;BME280;20381;54.498;18.206;2022-12-07T11:08:15;98353.78;;;3.08;95.92
34103;BME280;20381;54.498;18.206;2022-12-07T11:11:19;98346.05;;;3.08;95.78
34103;BME280;20381;54.498;18.206;2022-12-07T11:14:05;98335.73;;;3.08;95.54
34103;BME280;20381;54.498;18.206;2022-12-07T11:16:57;98334.85;;;3.09;95.65
34103;BME280;20381;54.498;18.206;2022-12-07T11:19:45;98330.11;;;3.20;95.77
34103;BME280;20381;54.498;18.206;2022-12-07T11:22:20;98316.91;;;3.28;95.74
34103;BME280;20381;54.498;18.206;2022-12-07T11:25:14;98320.50;;;3.24;95.33
34103;BME280;20381;54.498;18.206;2022-12-07T11:30:42;98313.67;;;3.23;95.27
34103;BME280;20381;54.498;18.206;2022-12-07T11:33:37;98318.25;;;3.26;95.26
34103;BME280;20381;54.498;18.206;2022-12-07T11:36:40;98317.22;;;3.20;95.02
34103;BME280;20381;54.498;18.206;2022-12-07T11:38:52;98315.84;;;3.22;95.14
34103;BME280;20381;54.498;18.206;2022-12-07T11:41:24;98314.63;;;3.20;95.17
34103;BME280;20381;54.498;18.206;2022-12-07T11:58:47;98303.02;;;2.76;94.54
34103;BME280;20381;54.498;18.206;2022-12-07T12:01:42;98302.47;;;2.68;94.53
34103;BME280;20381;54.498;18.206;2022-12-07T12:04:25;98298.84;;;2.62;94.57
34103;BME280;20381;54.498;18.206;2022-12-07T12:06:58;98303.91;;;2.41;95.35
34103;BME280;20381;54.498;18.206;2022-12-07T12:14:56;98286.58;;;2.57;94.53
34103;BME280;20381;54.498;18.206;2022-12-07T12:17:34;98280.92;;;2.59;94.46
34103;BME280;20381;54.498;18.206;2022-12-07T12:25:59;98276.56;;;2.37;94.17
34103;BME280;20381;54.498;18.206;2022-12-07T12:28:41;98271.30;;;2.40;94.00
34103;BME280;20381;54.498;18.206;2022-12-07T12:33:57;98267.96;;;2.38;93.92
34103;BME280;20381;54.498;18.206;2022-12-07T12:39:12;98276.13;;;2.26;93.54
34103;BME280;20381;54.498;18.206;2022-12-07T12:57:40;98240.75;;;2.19;93.71
34103;BME280;20381;54.498;18.206;2022-12-07T13:00:21;98251.51;;;2.19;93.50
34103;BME280;20381;54.498;18.206;2022-12-07T13:02:54;98239.17;;;2.15;93.40
34103;BME280;20381;54.498;18.206;2022-12-07T13:05:23;98241.33;;;2.16;93.54
34103;BME280;20381;54.498;18.206;2022-12-07T13:08:01;98243.82;;;2.17;93.46
34103;BME280;20381;54.498;18.206;2022-12-07T13:10:35;98245.06;;;2.19;93.52
34103;BME280;20381;54.498;18.206;2022-12-07T13:15:48;98244.39;;;2.14;93.15
34103;BME280;20381;54.498;18.206;2022-12-07T13:29:11;98238.95;;;1.86;94.05
34103;BME280;20381;54.498;18.206;2022-12-07T13:31:46;98243.30;;;1.84;94.19
34103;BME280;20381;54.498;18.206;2022-12-07T13:34:33;98237.33;;;1.84;94.33
34103;BME280;20381;54.498;18.206;2022-12-07T13:39:54;98221.47;;;1.71;94.77
34103;BME280;20381;54.498;18.206;2022-12-07T13:44:58;98228.53;;;1.66;94.83
34103;BME280;20381;54.498;18.206;2022-12-07T13:47:44;98229.72;;;1.81;94.46
34103;BME280;20381;54.498;18.206;2022-12-07T13:50:28;98227.38;;;1.86;93.83
34103;BME280;20381;54.498;18.206;2022-12-07T13:52:58;98234.59;;;1.88;93.70
34103;BME280;20381;54.498;18.206;2022-12-07T13:55:27;98231.11;;;1.89;93.68
34103;BME280;20381;54.498;18.206;2022-12-07T13:57:55;98231.91;;;1.91;93.70
34103;BME280;20381;54.498;18.206;2022-12-07T14:00:25;98227.64;;;1.90;93.60
34103;BME280;20381;54.498;18.206;2022-12-07T14:03:02;98225.97;;;1.89;93.54
34103;BME280;20381;54.498;18.206;2022-12-07T14:05:33;98223.77;;;1.90;93.57
34103;BME280;20381;54.498;18.206;2022-12-07T14:08:04;98221.20;;;1.90;93.60
34103;BME280;20381;54.498;18.206;2022-12-07T14:10:38;98221.61;;;1.91;93.58
34103;BME280;20381;54.498;18.206;2022-12-07T14:13:34;98222.11;;;1.89;93.45
34103;BME280;20381;54.498;18.206;2022-12-07T14:16:03;98230.73;;;1.88;93.52
34103;BME280;20381;54.498;18.206;2022-12-07T14:18:40;98237.77;;;1.83;93.49
34103;BME280;20381;54.498;18.206;2022-12-07T14:24:02;98230.66;;;1.78;93.62
34103;BME280;20381;54.498;18.206;2022-12-07T14:26:30;98227.25;;;1.77;93.55
34103;BME280;20381;54.498;18.206;2022-12-07T14:31:59;98223.89;;;1.75;93.56
34103;BME280;20381;54.498;18.206;2022-12-07T14:34:28;98215.94;;;1.70;93.47
34103;BME280;20381;54.498;18.206;2022-12-07T14:36:55;98215.67;;;1.66;93.38
34103;BME280;20381;54.498;18.206;2022-12-07T14:39:22;98208.94;;;1.62;93.33
34103;BME280;20381;54.498;18.206;2022-12-07T14:41:48;98210.94;;;1.53;93.13
34103;BME280;20381;54.498;18.206;2022-12-07T14:44:20;98210.47;;;1.42;93.09
34103;BME280;20381;54.498;18.206;2022-12-07T14:46:49;98215.66;;;1.29;92.67
34103;BME280;20381;54.498;18.206;2022-12-07T14:49:17;98214.97;;;1.10;92.59
34103;BME280;20381;54.498;18.206;2022-12-07T14:51:46;98205.59;;;0.96;92.59
34103;BME280;20381;54.498;18.206;2022-12-07T14:54:20;98207.12;;;0.88;92.73
34103;BME280;20381;54.498;18.206;2022-12-07T14:56:49;98206.28;;;0.88;92.78
34103;BME280;20381;54.498;18.206;2022-12-07T14:59:17;98216.56;;;0.88;93.04
34103;BME280;20381;54.498;18.206;2022-12-07T15:01:45;98212.98;;;0.92;93.17
34103;BME280;20381;54.498;18.206;2022-12-07T15:04:12;98212.81;;;0.98;93.24
34103;BME280;20381;54.498;18.206;2022-12-07T15:06:39;98222.89;;;1.04;93.21
34103;BME280;20381;54.498;18.206;2022-12-07T15:09:06;98209.94;;;1.07;93.28
34103;BME280;20381;54.498;18.206;2022-12-07T15:11:32;98212.41;;;1.10;93.15
34103;BME280;20381;54.498;18.206;2022-12-07T15:13:59;98211.50;;;1.11;93.05
34103;BME280;20381;54.498;18.206;2022-12-07T15:16:37;98213.12;;;1.14;93.13
34103;BME280;20381;54.498;18.206;2022-12-07T15:19:16;98214.77;;;1.17;93.25
34103;BME280;20381;54.498;18.206;2022-12-07T15:21:48;98220.31;;;1.18;93.10
34103;BME280;20381;54.498;18.206;2022-12-07T15:24:17;98213.89;;;1.18;93.11
34103;BME280;20381;54.498;18.206;2022-12-07T15:26:47;98218.17;;;1.17;93.01
34103;BME280;20381;54.498;18.206;2022-12-07T15:29:15;98218.45;;;1.09;92.81
34103;BME280;20381;54.498;18.206;2022-12-07T15:31:43;98213.48;;;1.03;92.79
34103;BME280;20381;54.498;18.206;2022-12-07T15:34:11;98211.36;;;1.03;93.03
34103;BME280;20381;54.498;18.206;2022-12-07T15:36:41;98213.45;;;1.05;93.05